Time;durP1;ratioP1;P1;durP2;ratioP2;P2;SDS_P1;SDS_P2;PMS_P1;PMS_P2;Temp;Humidity;BMP_temperature;BMP_pressure;BME280_temperature;BME280_humidity;BME280_pressure;Samples;Min_cycle;Max_cycle;Signal;HPM_P1;HPM_P2
2022/09/06 00:00:29;;;;;;;11.32;6.47;;;22.10;99.90;;;;;;5022664;23;20195;-73
2022/09/06 00:02:56;;;;;;;9.60;6.40;;;22.10;99.90;;;;;;5005042;28;20218;-74
2022/09/06 00:05:24;;;;;;;8.45;5.95;;;22.10;99.90;;;;;;4988081;28;20269;-73
2022/09/06 00:07:50;;;;;;;8.35;5.80;;;22.00;99.90;;;;;;4984143;28;20238;-72
2022/09/06 00:10:18;;;;;;;10.63;5.55;;;22.00;99.90;;;;;;4982736;28;20226;-73
2022/09/06 00:12:45;;;;;;;8.98;5.32;;;22.00;99.90;;;;;;5006563;28;20217;-73
2022/09/06 00:15:12;;;;;;;7.05;5.22;;;21.90;99.90;;;;;;5007779;28;20301;-73
2022/09/06 00:17:39;;;;;;;6.40;4.80;;;21.80;99.90;;;;;;5004355;28;20223;-71
2022/09/06 00:20:09;;;;;;;7.45;5.20;;;21.90;99.90;;;;;;4995207;28;20194;-73
2022/09/06 00:22:37;;;;;;;6.90;4.70;;;21.90;99.90;;;;;;5006962;28;20268;-73
2022/09/06 00:25:05;;;;;;;6.93;4.65;;;21.80;99.90;;;;;;5001974;28;20210;-73
2022/09/06 00:27:33;;;;;;;7.63;4.40;;;21.80;99.90;;;;;;5004719;28;20739;-72
2022/09/06 00:30:00;;;;;;;6.68;4.82;;;21.90;99.90;;;;;;5008246;28;20238;-72
2022/09/06 00:32:27;;;;;;;5.70;4.65;;;21.90;99.90;;;;;;5006090;28;20220;-72
2022/09/06 00:34:54;;;;;;;11.43;5.47;;;21.90;99.90;;;;;;5001548;28;20658;-72
2022/09/06 00:37:21;;;;;;;6.57;4.32;;;21.90;99.90;;;;;;5006361;28;20747;-72
2022/09/06 00:39:48;;;;;;;5.20;4.25;;;21.90;99.90;;;;;;5007251;28;20295;-73
2022/09/06 00:42:15;;;;;;;7.18;4.72;;;21.90;99.90;;;;;;5006114;28;20218;-72
2022/09/06 00:44:41;;;;;;;8.10;5.15;;;21.90;99.90;;;;;;5008013;28;20217;-74
2022/09/06 00:47:08;;;;;;;8.57;5.13;;;21.90;99.90;;;;;;5008508;28;20629;-71
2022/09/06 00:49:41;;;;;;;6.20;4.43;;;21.90;99.90;;;;;;4988243;28;20251;-72
2022/09/06 00:52:10;;;;;;;6.43;4.40;;;21.90;99.90;;;;;;5004220;28;20226;-73
2022/09/06 00:54:38;;;;;;;7.97;5.40;;;21.90;99.90;;;;;;5002518;28;20206;-74
2022/09/06 00:57:06;;;;;;;8.35;5.00;;;21.90;99.90;;;;;;4999007;28;20231;-74
2022/09/06 00:59:36;;;;;;;8.55;5.18;;;21.80;99.90;;;;;;5000164;28;20214;-73
2022/09/06 01:02:04;;;;;;;8.73;5.03;;;21.90;99.90;;;;;;5003892;28;20387;-73
2022/09/06 01:04:32;;;;;;;9.57;5.70;;;21.90;99.90;;;;;;5006755;28;20222;-73
2022/09/06 01:07:26;;;;;;;6.40;5.32;;;21.90;99.90;;;;;;5005058;28;20264;-73
2022/09/06 01:10:11;;;;;;;8.98;5.18;;;21.90;99.90;;;;;;5007467;28;20706;-72
2022/09/06 01:13:07;;;;;;;10.85;5.88;;;21.80;99.90;;;;;;5000004;28;20971;-72
2022/09/06 01:15:52;;;;;;;6.45;5.63;;;21.80;99.90;;;;;;5004220;28;20206;-72
2022/09/06 01:18:42;;;;;;;9.88;5.65;;;21.70;99.90;;;;;;4979106;28;20310;-74
2022/09/06 01:21:15;;;;;;;10.13;6.28;;;21.60;99.90;;;;;;5001124;28;20250;-73
2022/09/06 01:23:41;;;;;;;9.82;6.38;;;21.50;99.90;;;;;;5008298;28;20209;-73
2022/09/06 01:26:46;;;;;;;8.82;6.88;;;21.40;99.90;;;;;;5004087;28;20211;-73
2022/09/06 01:29:28;;;;;;;9.88;7.35;;;21.40;99.90;;;;;;5000834;28;20214;-73
2022/09/06 01:32:08;;;;;;;12.43;8.15;;;21.30;99.90;;;;;;5005995;28;20214;-73
2022/09/06 01:34:43;;;;;;;12.00;6.78;;;21.30;99.90;;;;;;5003246;28;20646;-73
2022/09/06 01:37:13;;;;;;;11.13;7.65;;;21.30;99.90;;;;;;5000102;28;20653;-74
2022/09/06 01:39:40;;;;;;;10.18;6.75;;;21.20;99.90;;;;;;5003918;28;20213;-74
2022/09/06 01:42:26;;;;;;;9.23;6.55;;;21.20;99.90;;;;;;5004264;28;20310;-74
2022/09/06 01:44:55;;;;;;;10.00;6.95;;;21.20;99.90;;;;;;5005648;28;20682;-73
2022/09/06 01:47:45;;;;;;;12.50;7.25;;;21.10;99.90;;;;;;4980996;28;20215;-73
2022/09/06 01:50:34;;;;;;;9.02;6.95;;;21.20;99.90;;;;;;5004252;28;20273;-74
2022/09/06 01:53:24;;;;;;;7.88;6.18;;;21.10;99.90;;;;;;4988178;28;20225;-73
2022/09/06 01:56:04;;;;;;;10.02;6.43;;;21.10;99.90;;;;;;4998166;28;20251;-73
2022/09/06 01:59:00;;;;;;;9.20;7.00;;;21.10;99.90;;;;;;4995125;28;20230;-74
2022/09/06 02:02:00;;;;;;;11.93;6.78;;;21.00;99.90;;;;;;5006066;28;20586;-75
2022/09/06 02:04:43;;;;;;;9.88;5.70;;;21.00;99.90;;;;;;5004727;28;20332;-74
2022/09/06 02:07:14;;;;;;;10.48;6.15;;;21.00;99.90;;;;;;5006343;28;20298;-74
2022/09/06 02:09:45;;;;;;;7.90;6.30;;;21.00;99.90;;;;;;5004994;28;20199;-74
2022/09/06 02:12:15;;;;;;;12.40;7.70;;;21.10;99.90;;;;;;5006643;28;20328;-74
2022/09/06 02:14:51;;;;;;;15.23;7.93;;;21.10;99.90;;;;;;5001484;28;20282;-74
2022/09/06 02:17:24;;;;;;;10.35;6.25;;;21.10;99.90;;;;;;5004957;28;20214;-73
2022/09/06 02:19:57;;;;;;;10.38;7.20;;;21.10;99.90;;;;;;5004140;28;20207;-74
2022/09/06 02:22:28;;;;;;;12.10;6.85;;;21.10;99.90;;;;;;4993156;28;20254;-73
2022/09/06 02:24:58;;;;;;;10.00;6.65;;;21.10;99.90;;;;;;4988501;28;20572;-75
2022/09/06 02:27:26;;;;;;;10.18;7.97;;;21.10;99.90;;;;;;5005934;28;20306;-74
2022/09/06 02:29:56;;;;;;;11.55;7.55;;;21.00;99.90;;;;;;4989650;28;20221;-76
2022/09/06 02:32:26;;;;;;;10.70;7.25;;;21.00;99.90;;;;;;5005016;28;20274;-76
2022/09/06 02:34:56;;;;;;;13.85;7.82;;;21.00;99.90;;;;;;5007306;28;20546;-74
2022/09/06 02:37:27;;;;;;;9.98;8.13;;;21.00;99.90;;;;;;5007621;28;20318;-76
2022/09/06 02:39:54;;;;;;;12.25;7.68;;;21.00;99.90;;;;;;4988695;28;20205;-76
2022/09/06 02:42:23;;;;;;;11.27;8.25;;;21.00;99.90;;;;;;4981325;28;20211;-76
2022/09/06 02:44:49;;;;;;;10.25;7.78;;;20.90;99.90;;;;;;5003057;28;20214;-76
2022/09/06 02:47:17;;;;;;;13.48;7.70;;;20.80;99.90;;;;;;5001101;28;20206;-76
2022/09/06 02:49:44;;;;;;;8.73;6.50;;;20.80;99.90;;;;;;5009078;28;20214;-76
2022/09/06 02:52:11;;;;;;;10.35;7.50;;;20.80;99.90;;;;;;5004752;28;20645;-76
2022/09/06 02:54:38;;;;;;;12.95;8.13;;;20.80;99.90;;;;;;5000617;28;20660;-76
2022/09/06 02:57:05;;;;;;;9.70;7.72;;;20.80;99.90;;;;;;4987863;28;20234;-78
2022/09/06 02:59:32;;;;;;;11.20;8.25;;;20.80;99.90;;;;;;5007383;28;20233;-76
2022/09/06 03:01:59;;;;;;;8.60;6.18;;;20.80;99.90;;;;;;4983145;28;20755;-75
2022/09/06 03:04:26;;;;;;;11.18;7.60;;;20.90;99.90;;;;;;5008851;28;20332;-76
2022/09/06 03:06:55;;;;;;;10.63;7.68;;;20.90;99.90;;;;;;5002796;28;20222;-77
2022/09/06 03:09:22;;;;;;;12.82;7.82;;;20.80;99.90;;;;;;4990250;28;20199;-76
2022/09/06 03:11:49;;;;;;;12.65;8.30;;;20.90;99.90;;;;;;5000027;28;20242;-76
2022/09/06 03:14:16;;;;;;;10.88;8.20;;;20.80;99.90;;;;;;5000547;28;20841;-76
2022/09/06 03:16:42;;;;;;;12.45;9.25;;;20.60;99.90;;;;;;4999070;28;20214;-76
2022/09/06 03:19:09;;;;;;;11.13;8.52;;;20.70;99.90;;;;;;5003000;28;20237;-75
2022/09/06 03:21:36;;;;;;;10.63;8.93;;;20.70;99.90;;;;;;4999804;28;20211;-77
2022/09/06 03:24:03;;;;;;;15.77;9.35;;;20.70;99.90;;;;;;5006950;28;20210;-77
2022/09/06 03:26:30;;;;;;;11.63;9.02;;;20.60;99.90;;;;;;5001798;28;20576;-76
2022/09/06 03:28:57;;;;;;;12.10;10.30;;;20.50;99.90;;;;;;4997669;28;20219;-76
2022/09/06 03:31:24;;;;;;;15.00;11.43;;;20.50;99.90;;;;;;5003411;28;20214;-77
2022/09/06 03:33:51;;;;;;;16.08;12.55;;;20.50;99.90;;;;;;5004958;28;20690;-77
2022/09/06 03:36:18;;;;;;;18.35;13.27;;;20.40;99.90;;;;;;5003300;28;20714;-79
2022/09/06 03:38:45;;;;;;;16.67;13.25;;;20.30;99.90;;;;;;4992070;28;20320;-77
2022/09/06 03:41:12;;;;;;;17.90;14.27;;;20.30;99.90;;;;;;4999939;28;20289;-78
2022/09/06 03:43:39;;;;;;;21.10;15.07;;;20.10;99.90;;;;;;5008476;28;20694;-76
2022/09/06 03:46:06;;;;;;;19.77;15.55;;;20.20;99.90;;;;;;4987864;28;20203;-77
2022/09/06 03:48:33;;;;;;;21.17;16.02;;;20.00;99.90;;;;;;4992054;28;20252;-77
2022/09/06 03:51:02;;;;;;;19.30;14.13;;;19.90;99.90;;;;;;5004252;28;20214;-78
2022/09/06 03:53:29;;;;;;;22.52;16.33;;;19.90;99.90;;;;;;5003633;28;20218;-77
2022/09/06 03:55:57;;;;;;;20.50;15.13;;;19.90;99.90;;;;;;5001237;28;20266;-77
2022/09/06 03:58:29;;;;;;;22.17;13.68;;;19.80;99.90;;;;;;5003340;28;20230;-76
2022/09/06 04:01:04;;;;;;;18.27;13.50;;;19.80;99.90;;;;;;4997382;28;20234;-77
2022/09/06 04:03:32;;;;;;;19.98;14.43;;;19.90;99.90;;;;;;5008475;28;20317;-77
2022/09/06 04:06:00;;;;;;;18.25;13.95;;;19.80;99.90;;;;;;5004549;28;20836;-78
2022/09/06 04:08:26;;;;;;;17.65;13.52;;;19.90;99.90;;;;;;5004354;28;20207;-77
2022/09/06 04:10:55;;;;;;;16.95;14.10;;;19.80;99.90;;;;;;5010315;28;20229;-77
2022/09/06 04:13:23;;;;;;;24.17;14.80;;;19.90;99.90;;;;;;5005185;28;20207;-79
2022/09/06 04:15:51;;;;;;;21.38;15.00;;;19.90;99.90;;;;;;4990901;28;20298;-77
2022/09/06 04:18:19;;;;;;;18.58;14.98;;;19.90;99.90;;;;;;4980825;28;20231;-77
2022/09/06 04:20:50;;;;;;;19.88;15.00;;;19.90;99.90;;;;;;5006866;28;20214;-77
2022/09/06 04:23:18;;;;;;;17.13;14.20;;;19.90;99.90;;;;;;5004490;28;20218;-77
2022/09/06 04:25:47;;;;;;;18.55;14.60;;;19.90;99.90;;;;;;5011193;28;20202;-75
2022/09/06 04:28:14;;;;;;;19.58;14.70;;;19.90;99.90;;;;;;4984603;28;20214;-77
2022/09/06 04:30:41;;;;;;;18.08;15.13;;;19.90;99.90;;;;;;5007814;28;20276;-78
2022/09/06 04:33:08;;;;;;;19.58;14.45;;;20.00;99.90;;;;;;4988031;28;20211;-76
2022/09/06 04:35:36;;;;;;;23.25;16.15;;;20.00;99.90;;;;;;4991008;28;20264;-77
2022/09/06 04:38:03;;;;;;;20.98;14.50;;;20.00;99.90;;;;;;4986777;28;20327;-75
2022/09/06 04:40:34;;;;;;;18.55;14.25;;;20.00;99.90;;;;;;5006969;28;20217;-77
2022/09/06 04:43:01;;;;;;;20.38;15.43;;;20.10;99.90;;;;;;4998666;28;20205;-77
2022/09/06 04:45:28;;;;;;;18.48;14.13;;;20.00;99.90;;;;;;4993707;28;20233;-78
2022/09/06 04:47:55;;;;;;;17.23;13.10;;;20.00;99.90;;;;;;5003406;28;20198;-77
2022/09/06 04:50:22;;;;;;;18.33;14.45;;;20.00;99.90;;;;;;4988862;28;20221;-77
2022/09/06 04:52:49;;;;;;;22.05;15.10;;;20.00;99.90;;;;;;5006126;28;20620;-78
2022/09/06 04:55:16;;;;;;;18.42;13.80;;;20.00;99.90;;;;;;4986371;28;20272;-76
2022/09/06 04:57:43;;;;;;;22.30;15.57;;;20.00;99.90;;;;;;4981091;28;20214;-76
2022/09/06 05:00:18;;;;;;;19.15;13.90;;;20.00;99.90;;;;;;4997843;28;20257;-76
2022/09/06 05:02:45;;;;;;;19.27;14.65;;;20.00;99.90;;;;;;4979920;28;20231;-77
2022/09/06 05:05:12;;;;;;;22.85;15.68;;;19.80;99.90;;;;;;5000200;28;20230;-75
2022/09/06 05:07:39;;;;;;;21.25;15.75;;;20.00;99.90;;;;;;4998754;28;20253;-78
2022/09/06 05:10:06;;;;;;;21.63;15.15;;;20.00;99.90;;;;;;4996553;28;20212;-75
2022/09/06 05:12:33;;;;;;;19.48;14.20;;;19.90;99.90;;;;;;4995466;28;20211;-78
2022/09/06 05:15:09;;;;;;;21.15;16.13;;;19.90;99.90;;;;;;4981214;28;20209;-77
2022/09/06 05:17:36;;;;;;;19.48;15.82;;;19.90;99.90;;;;;;4998943;28;20205;-78
2022/09/06 05:20:04;;;;;;;23.73;16.70;;;19.90;99.90;;;;;;4997211;28;20238;-76
2022/09/06 05:22:31;;;;;;;20.35;14.75;;;19.90;99.90;;;;;;4982202;28;20222;-76
2022/09/06 05:24:58;;;;;;;18.70;14.90;;;19.90;99.90;;;;;;4997644;28;20207;-78
2022/09/06 05:27:25;;;;;;;22.55;16.00;;;20.00;99.90;;;;;;4997799;28;20721;-78
2022/09/06 05:29:52;;;;;;;20.70;15.70;;;19.90;99.90;;;;;;4995602;28;20203;-80
2022/09/06 05:32:19;;;;;;;22.33;15.35;;;20.00;99.90;;;;;;4996389;28;20452;-78
2022/09/06 05:34:46;;;;;;;19.85;15.45;;;20.00;99.90;;;;;;4992578;28;20681;-76
2022/09/06 05:37:13;;;;;;;18.05;14.48;;;20.00;99.90;;;;;;4997772;28;20235;-80
2022/09/06 05:39:40;;;;;;;19.38;16.17;;;20.00;99.90;;;;;;4995776;28;20323;-76
2022/09/06 05:42:07;;;;;;;22.15;14.85;;;20.00;99.90;;;;;;4997397;28;20211;-77
2022/09/06 05:44:34;;;;;;;22.90;16.10;;;20.10;99.90;;;;;;4978797;28;20214;-74
2022/09/06 05:47:02;;;;;;;22.52;16.65;;;20.10;99.90;;;;;;4991471;28;20265;-78
2022/09/06 05:49:31;;;;;;;24.55;16.25;;;20.10;99.90;;;;;;4998868;28;20217;-76
2022/09/06 05:51:58;;;;;;;22.20;16.20;;;20.10;99.90;;;;;;4975439;28;20639;-77
2022/09/06 05:54:25;;;;;;;16.88;13.15;;;20.20;99.90;;;;;;4992701;28;20302;-78
2022/09/06 05:56:52;;;;;;;16.42;14.00;;;20.20;99.90;;;;;;4994241;28;20294;-79
2022/09/06 05:59:19;;;;;;;21.88;14.70;;;20.20;99.90;;;;;;4971564;28;20246;-78
2022/09/06 06:01:55;;;;;;;18.23;14.65;;;20.40;99.90;;;;;;4994090;28;20234;-80
2022/09/06 06:04:22;;;;;;;27.08;15.75;;;20.30;99.90;;;;;;4996821;28;20241;-80
2022/09/06 06:06:49;;;;;;;18.33;15.50;;;20.40;99.90;;;;;;4992227;28;20707;-81
2022/09/06 06:09:17;;;;;;;21.50;15.52;;;20.40;99.90;;;;;;5000293;28;20239;-78
2022/09/06 06:11:44;;;;;;;23.58;16.90;;;20.40;99.90;;;;;;4997099;28;20217;-77
2022/09/06 06:14:11;;;;;;;25.20;16.67;;;20.40;99.90;;;;;;4998460;28;20215;-76
2022/09/06 06:16:38;;;;;;;19.80;15.25;;;20.40;99.90;;;;;;4997528;28;20636;-80
2022/09/06 06:19:05;;;;;;;18.55;15.20;;;20.50;99.90;;;;;;5003826;28;20229;-77
2022/09/06 06:21:42;;;;;;;21.95;17.35;;;20.50;99.90;;;;;;4997985;28;20288;-75
2022/09/06 06:24:09;;;;;;;22.45;16.95;;;20.60;99.90;;;;;;5003656;28;20638;-75
2022/09/06 06:26:36;;;;;;;24.63;16.80;;;20.70;99.90;;;;;;4998532;28;20261;-76
2022/09/06 06:29:06;;;;;;;18.42;16.05;;;20.60;99.90;;;;;;4988191;28;20667;-76
2022/09/06 06:31:34;;;;;;;22.00;15.73;;;20.70;99.90;;;;;;4991725;28;20273;-76
2022/09/06 06:34:02;;;;;;;20.08;15.88;;;20.70;99.90;;;;;;4987310;28;20233;-77
2022/09/06 06:36:32;;;;;;;21.55;16.88;;;20.80;99.90;;;;;;5000998;28;20301;-75
2022/09/06 06:39:00;;;;;;;22.15;16.80;;;20.80;99.90;;;;;;4995162;28;20219;-75
2022/09/06 06:41:30;;;;;;;22.73;15.88;;;20.80;99.90;;;;;;4983725;28;20609;-75
2022/09/06 06:44:02;;;;;;;18.27;15.85;;;20.90;99.90;;;;;;4988253;28;20302;-75
2022/09/06 06:46:32;;;;;;;19.17;14.88;;;21.00;99.90;;;;;;4999071;28;20218;-75
2022/09/06 06:49:10;;;;;;;19.55;15.25;;;21.00;99.90;;;;;;5007104;28;20694;-75
2022/09/06 06:51:38;;;;;;;19.00;14.95;;;21.10;99.90;;;;;;5000563;28;20230;-76
2022/09/06 06:54:05;;;;;;;18.67;14.27;;;21.30;99.90;;;;;;4999785;28;20256;-77
2022/09/06 06:56:35;;;;;;;18.48;14.13;;;21.50;99.90;;;;;;4988070;28;20202;-76
2022/09/06 06:59:04;;;;;;;15.27;12.25;;;21.90;99.90;;;;;;5005893;28;20230;-76
2022/09/06 07:01:32;;;;;;;13.65;11.57;;;22.60;99.90;;;;;;5000609;28;20226;-75
2022/09/06 07:04:00;;;;;;;15.35;10.57;;;23.60;99.90;;;;;;4998782;28;20243;-75
2022/09/06 07:06:27;;;;;;;15.77;11.02;;;24.70;99.90;;;;;;5001723;28;20214;-76
2022/09/06 07:09:17;;;;;;;13.35;10.13;;;25.50;99.90;;;;;;5003491;28;20195;-77
2022/09/06 07:11:45;;;;;;;10.32;8.88;;;26.20;99.90;;;;;;5000977;28;20203;-77
2022/09/06 07:14:12;;;;;;;11.48;8.88;;;26.60;99.90;;;;;;5000782;28;20199;-76
2022/09/06 07:16:38;;;;;;;10.60;8.43;;;27.20;99.90;;;;;;4991011;28;20698;-78
2022/09/06 07:19:18;;;;;;;9.20;8.30;;;27.70;99.90;;;;;;5003892;28;20321;-78
2022/09/06 07:22:07;;;;;;;9.02;7.22;;;28.20;99.90;;;;;;5001998;28;20214;-80
2022/09/06 07:24:38;;;;;;;8.95;7.40;;;28.90;99.90;;;;;;4982633;28;20329;-80
2022/09/06 07:27:05;;;;;;;9.63;6.78;;;29.50;99.90;;;;;;4988962;28;20578;-78
2022/09/06 07:29:51;;;;;;;8.73;7.18;;;30.10;99.90;;;;;;5001729;28;20206;-80
2022/09/06 07:32:18;;;;;;;8.55;7.10;;;30.50;99.90;;;;;;4985241;28;20655;-79
2022/09/06 07:34:48;;;;;;;10.43;7.40;;;30.80;99.90;;;;;;4989112;28;20226;-80
2022/09/06 07:37:16;;;;;;;8.07;6.97;;;31.00;99.90;;;;;;5000328;28;20214;-80
2022/09/06 07:39:43;;;;;;;7.72;6.47;;;31.30;99.90;;;;;;4989237;28;20235;-78
2022/09/06 07:42:10;;;;;;;8.82;6.00;;;31.50;99.90;;;;;;5001672;28;20247;-79
2022/09/06 07:44:37;;;;;;;6.75;5.63;;;31.70;99.90;;;;;;5001225;28;20575;-78
2022/09/06 07:47:06;;;;;;;7.25;5.18;;;31.80;99.90;;;;;;5000935;28;20203;-78
2022/09/06 07:49:53;;;;;;;6.75;4.85;;;31.90;99.90;;;;;;4999380;28;20575;-78
2022/09/06 07:52:41;;;;;;;5.88;5.10;;;;;;;;;;5005041;28;20305;-79
2022/09/06 07:55:27;;;;;;;5.97;5.38;;;31.80;99.90;;;;;;5001495;28;20231;-81
2022/09/06 07:57:55;;;;;;;6.43;5.15;;;31.80;99.90;;;;;;5006314;28;20198;-79
2022/09/06 08:00:22;;;;;;;7.50;5.25;;;31.80;99.90;;;;;;5001097;28;20233;-77
2022/09/06 08:02:49;;;;;;;5.38;4.88;;;31.80;99.90;;;;;;5002805;28;20226;-77
2022/09/06 08:05:18;;;;;;;8.45;5.97;;;32.00;99.90;;;;;;5005187;28;20222;-77
2022/09/06 08:08:05;;;;;;;7.18;5.70;;;32.20;99.90;;;;;;5006964;28;20698;-79
2022/09/06 08:10:52;;;;;;;6.40;5.53;;;32.40;99.90;;;;;;5003420;28;20253;-77
2022/09/06 08:13:19;;;;;;;9.15;5.43;;;32.60;99.90;;;;;;5003237;28;20218;-75
2022/09/06 08:15:45;;;;;;;9.70;5.75;;;32.60;99.90;;;;;;4990389;28;20596;-76
2022/09/06 08:18:12;;;;;;;8.05;6.15;;;32.60;99.50;;;;;;5006736;28;20265;-76
2022/09/06 08:20:39;;;;;;;6.30;5.47;;;32.60;98.90;;;;;;5006171;28;20882;-77
2022/09/06 08:23:09;;;;;;;7.10;5.55;;;32.40;98.30;;;;;;5003954;28;20214;-77
2022/09/06 08:25:36;;;;;;;8.05;6.28;;;32.30;98.40;;;;;;4988729;28;20726;-80
2022/09/06 08:28:03;;;;;;;8.70;6.22;;;32.40;98.50;;;;;;5002709;28;20274;-77
2022/09/06 08:30:30;;;;;;;7.82;6.55;;;32.40;97.90;;;;;;4997846;28;20270;-78
2022/09/06 08:32:57;;;;;;;6.75;6.05;;;32.40;97.50;;;;;;4992649;28;20195;-76
2022/09/06 08:35:24;;;;;;;9.45;6.80;;;32.30;98.00;;;;;;5003400;28;20233;-75
2022/09/06 08:37:51;;;;;;;6.70;6.00;;;32.20;97.30;;;;;;4999756;28;20222;-77
2022/09/06 08:40:20;;;;;;;9.98;6.80;;;;;;;;;;5001689;28;20231;-76
2022/09/06 08:42:47;;;;;;;7.65;5.97;;;32.00;97.00;;;;;;5001544;28;20203;-76
2022/09/06 08:45:20;;;;;;;8.57;6.13;;;31.90;97.70;;;;;;5004711;28;20268;-77
2022/09/06 08:47:49;;;;;;;6.25;5.65;;;32.00;98.00;;;;;;4986421;28;20218;-79
2022/09/06 08:50:17;;;;;;;7.38;6.57;;;32.10;98.20;;;;;;4985608;28;20316;-76
2022/09/06 08:52:57;;;;;;;7.22;6.05;;;32.00;97.70;;;;;;5001591;28;20246;-77
2022/09/06 08:55:53;;;;;;;6.03;5.10;;;32.10;97.80;;;;;;4987327;28;20206;-76
2022/09/06 08:59:00;;;;;;;5.90;5.32;;;32.10;96.90;;;;;;5001220;28;20605;-77
2022/09/06 09:01:34;;;;;;;5.90;4.60;;;32.00;96.10;;;;;;4991356;28;20227;-77
2022/09/06 09:04:05;;;;;;;5.95;4.82;;;31.90;96.30;;;;;;5005806;28;20206;-76
2022/09/06 09:06:32;;;;;;;6.40;4.40;;;31.90;97.00;;;;;;4983720;28;20219;-76
2022/09/06 09:09:07;;;;;;;8.00;5.03;;;31.90;96.70;;;;;;5005035;28;20202;-76
2022/09/06 09:11:35;;;;;;;9.05;5.40;;;31.90;96.40;;;;;;5007424;28;20261;-75
2022/09/06 09:14:07;;;;;;;5.78;4.82;;;31.90;96.00;;;;;;5003189;28;20691;-74
2022/09/06 09:16:35;;;;;;;5.10;4.38;;;31.80;95.70;;;;;;5003270;28;20586;-75
2022/09/06 09:19:03;;;;;;;6.10;4.97;;;31.70;96.40;;;;;;5001431;28;20285;-76
2022/09/06 09:21:33;;;;;;;7.97;4.50;;;31.60;95.90;;;;;;4998313;28;20730;-76
2022/09/06 09:24:12;;;;;;;5.32;4.75;;;31.50;95.70;;;;;;5002653;28;20663;-76
2022/09/06 09:27:04;;;;;;;5.72;4.30;;;31.50;95.80;;;;;;4987973;28;20245;-77
2022/09/06 09:29:31;;;;;;;6.97;4.18;;;31.40;95.30;;;;;;5002542;28;21429;-75
2022/09/06 09:32:02;;;;;;;5.28;4.10;;;31.30;95.70;;;;;;5004365;28;20325;-74
2022/09/06 09:34:34;;;;;;;6.70;4.32;;;;;;;;;;5000132;28;20257;-75
2022/09/06 09:37:21;;;;;;;7.40;5.80;;;31.30;95.60;;;;;;4998049;28;20318;-75
2022/09/06 09:40:30;;;;;;;7.43;5.07;;;31.30;95.90;;;;;;5000936;28;20316;-75
2022/09/06 09:43:13;;;;;;;8.10;5.82;;;31.10;95.90;;;;;;5000699;28;20289;-75
2022/09/06 09:45:43;;;;;;;7.47;6.00;;;31.10;95.60;;;;;;4996582;28;20214;-75
2022/09/06 09:48:41;;;;;;;9.35;6.30;;;31.00;95.90;;;;;;4991997;28;20241;-77
2022/09/06 09:51:20;;;;;;;8.77;5.53;;;30.80;96.40;;;;;;4984238;28;20664;-81
2022/09/06 09:54:03;;;;;;;6.63;4.80;;;30.70;96.50;;;;;;4984608;28;20206;-81
2022/09/06 09:56:35;;;;;;;9.18;6.57;;;30.60;96.40;;;;;;4983529;28;20213;-79
2022/09/06 09:59:14;;;;;;;9.30;6.82;;;30.60;96.20;;;;;;4999506;28;20571;-79
2022/09/06 10:01:41;;;;;;;8.25;6.55;;;30.50;96.30;;;;;;4999878;28;20269;-78
2022/09/06 10:04:15;;;;;;;8.60;6.30;;;30.40;96.30;;;;;;5003328;28;20261;-79
2022/09/06 10:07:18;;;;;;;7.05;5.82;;;30.40;96.20;;;;;;4984850;28;20309;-80
2022/09/06 10:10:09;;;;;;;10.63;7.03;;;30.30;96.40;;;;;;4985115;28;20214;-78
2022/09/06 10:12:38;;;;;;;10.50;5.97;;;30.20;96.30;;;;;;4991385;28;20210;-78
2022/09/06 10:15:08;;;;;;;7.10;5.45;;;30.20;96.40;;;;;;5002879;28;20281;-79
2022/09/06 10:17:46;;;;;;;7.55;5.90;;;30.10;96.60;;;;;;5000370;28;20565;-77
2022/09/06 10:20:13;;;;;;;7.60;5.60;;;30.20;96.60;;;;;;5006713;28;20298;-78
2022/09/06 10:23:00;;;;;;;9.40;5.72;;;30.30;96.40;;;;;;4999938;28;20222;-80
2022/09/06 10:25:41;;;;;;;7.80;5.50;;;30.30;96.30;;;;;;4998065;28;20651;-78
2022/09/06 10:28:32;;;;;;;7.75;5.47;;;30.30;96.10;;;;;;5000066;28;20682;-76
2022/09/06 10:31:22;;;;;;;9.25;5.70;;;30.20;96.10;;;;;;4995859;28;20206;-76
2022/09/06 10:34:23;;;;;;;7.20;6.28;;;30.20;96.20;;;;;;4998068;28;20211;-76
2022/09/06 10:37:16;;;;;;;8.05;6.13;;;30.20;95.70;;;;;;5005423;28;20248;-76
2022/09/06 10:40:07;;;;;;;7.43;6.00;;;30.10;96.40;;;;;;4999058;28;20258;-76
2022/09/06 10:42:51;;;;;;;9.13;5.95;;;29.90;96.20;;;;;;5001972;28;20202;-75
2022/09/06 10:45:57;;;;;;;8.38;5.82;;;29.70;96.30;;;;;;4999451;28;20207;-75
2022/09/06 10:48:34;;;;;;;11.45;5.40;;;29.60;96.50;;;;;;5006646;28;20210;-75
2022/09/06 10:51:26;;;;;;;6.90;5.40;;;29.50;96.70;;;;;;4988206;28;20202;-75
2022/09/06 10:54:13;;;;;;;7.68;5.70;;;29.60;97.10;;;;;;5007627;28;20216;-77
2022/09/06 10:57:03;;;;;;;6.85;5.15;;;29.70;96.70;;;;;;4984647;28;20671;-75
2022/09/06 10:59:37;;;;;;;9.63;5.97;;;29.70;96.70;;;;;;5008504;28;20296;-76
2022/09/06 11:02:07;;;;;;;8.35;6.60;;;29.80;96.50;;;;;;4988826;28;20721;-77
2022/09/06 11:04:41;;;;;;;10.93;6.75;;;29.90;96.50;;;;;;5003015;28;20195;-75
2022/09/06 11:07:34;;;;;;;7.97;6.50;;;29.90;96.20;;;;;;5001229;28;20698;-75
2022/09/06 11:10:11;;;;;;;9.25;5.88;;;29.90;96.20;;;;;;5006731;28;20198;-75
2022/09/06 11:13:06;;;;;;;9.63;5.63;;;30.00;96.40;;;;;;5000334;28;20218;-76
2022/09/06 11:15:58;;;;;;;5.88;4.88;;;30.00;96.40;;;;;;5004681;28;20290;-75
2022/09/06 11:18:40;;;;;;;8.25;6.05;;;30.10;96.80;;;;;;5003549;28;20208;-77
2022/09/06 11:21:45;;;;;;;7.63;5.30;;;30.30;96.40;;;;;;4979250;28;20226;-77
2022/09/06 11:24:32;;;;;;;8.25;4.53;;;30.40;95.80;;;;;;5002619;28;20858;-76
2022/09/06 11:27:11;;;;;;;6.03;4.65;;;30.50;95.80;;;;;;5001682;28;20206;-75
2022/09/06 11:29:45;;;;;;;9.07;5.65;;;30.50;95.30;;;;;;4997692;28;20234;-76
2022/09/06 11:32:38;;;;;;;5.65;4.75;;;30.70;95.40;;;;;;4995155;28;20261;-77
2022/09/06 11:35:19;;;;;;;9.55;4.35;;;30.80;94.90;;;;;;4999772;28;20265;-76
2022/09/06 11:37:49;;;;;;;3.72;3.35;;;30.80;94.70;;;;;;4992183;28;20302;-77
2022/09/06 11:40:21;;;;;;;4.75;3.13;;;30.90;94.30;;;;;;4995501;28;20235;-75
2022/09/06 11:42:53;;;;;;;3.70;3.30;;;31.00;94.00;;;;;;4997945;28;20248;-76
2022/09/06 11:45:42;;;;;;;4.55;3.47;;;31.10;93.80;;;;;;4996897;28;20218;-76
2022/09/06 11:48:32;;;;;;;4.35;2.88;;;31.20;93.80;;;;;;4997008;28;20217;-76
2022/09/06 11:51:02;;;;;;;4.05;3.00;;;31.30;93.30;;;;;;4997815;28;20214;-77
2022/09/06 11:53:34;;;;;;;4.25;3.05;;;31.20;93.00;;;;;;4994428;28;20219;-76
2022/09/06 11:56:00;;;;;;;4.78;3.33;;;31.20;93.20;;;;;;4997093;28;20207;-76
2022/09/06 11:58:42;;;;;;;5.90;3.67;;;31.30;93.50;;;;;;4984051;28;20275;-75
2022/09/06 12:01:12;;;;;;;5.60;3.20;;;31.40;93.10;;;;;;4996551;28;20703;-76
2022/09/06 12:03:42;;;;;;;3.17;2.78;;;31.30;92.90;;;;;;5004916;28;20210;-77
2022/09/06 12:06:41;;;;;;;6.28;3.35;;;31.30;93.40;;;;;;4993763;28;20293;-77
2022/09/06 12:09:28;;;;;;;3.90;2.90;;;31.40;92.60;;;;;;5000202;28;20206;-76
2022/09/06 12:11:56;;;;;;;5.28;2.92;;;31.50;92.70;;;;;;4996602;28;20679;-76
2022/09/06 12:14:26;;;;;;;5.38;2.97;;;31.60;92.70;;;;;;5000261;28;20249;-76
2022/09/06 12:16:59;;;;;;;4.90;3.13;;;31.80;92.40;;;;;;4994587;28;20667;-78
2022/09/06 12:19:46;;;;;;;3.33;3.00;;;31.80;92.00;;;;;;4995562;28;20203;-77
2022/09/06 12:22:25;;;;;;;3.22;2.45;;;31.70;91.90;;;;;;4999350;28;20229;-77
2022/09/06 12:25:04;;;;;;;3.22;2.33;;;31.50;91.90;;;;;;4996704;28;20215;-77
2022/09/06 12:27:43;;;;;;;2.40;2.20;;;31.40;91.60;;;;;;4993265;28;20334;-77
2022/09/06 12:30:28;;;;;;;2.90;2.47;;;31.30;91.90;;;;;;4995184;28;20321;-78
2022/09/06 12:32:56;;;;;;;3.60;2.45;;;31.30;91.70;;;;;;4985078;28;20218;-77
2022/09/06 12:35:26;;;;;;;3.88;2.40;;;31.30;91.20;;;;;;4997478;28;20203;-77
2022/09/06 12:38:17;;;;;;;4.88;2.47;;;31.20;91.40;;;;;;4999522;28;20218;-77
2022/09/06 12:40:47;;;;;;;4.85;2.42;;;31.10;91.30;;;;;;4998299;28;20650;-76
2022/09/06 12:43:17;;;;;;;3.83;2.25;;;31.10;91.30;;;;;;4997631;28;20202;-77
2022/09/06 12:45:46;;;;;;;4.22;2.10;;;31.10;91.60;;;;;;4996685;28;20214;-78
2022/09/06 12:48:27;;;;;;;5.20;2.45;;;31.40;91.90;;;;;;4994635;28;20610;-78
2022/09/06 12:51:04;;;;;;;3.90;2.00;;;31.70;90.60;;;;;;5000238;28;20206;-77
2022/09/06 12:53:33;;;;;;;4.28;2.03;;;31.80;90.80;;;;;;4999531;28;20659;-78
2022/09/06 12:56:07;;;;;;;2.90;2.17;;;31.90;90.70;;;;;;5000113;28;20623;-77
2022/09/06 12:58:38;;;;;;;2.95;2.08;;;32.00;90.40;;;;;;4985713;28;20472;-75
2022/09/06 13:01:32;;;;;;;2.22;1.92;;;32.20;90.10;;;;;;4982850;28;20708;-76
2022/09/06 13:04:09;;;;;;;2.10;1.90;;;32.40;90.00;;;;;;4996871;28;20247;-77
2022/09/06 13:06:41;;;;;;;3.45;2.35;;;32.40;90.00;;;;;;5000894;28;20234;-79
2022/09/06 13:09:12;;;;;;;2.40;1.90;;;32.50;90.30;;;;;;5000338;28;20710;-78
2022/09/06 13:11:47;;;;;;;2.40;2.20;;;32.60;90.10;;;;;;5004163;28;20998;-77